Terminal Aerodrome Forecast
Issued by NWS

Home | Current Version | Previous Version | Text Only | Print | Product List | Glossary On
Versions: 1 2 3 4 5 6 7 8 9 10 11 12 13 14 15
000
FTUS46 KSGX 041121
TAFPSP
TAF
KPSP 041121Z 0412/0512 32012KT P6SM FEW120
     FM041400 VRB06KT P6SM SKC
     FM042200 33011G20KT P6SM VCTS FEW100CB
     FM050100 32013G23KT P6SM FEW120
     FM050900 VRB06KT P6SM FEW120=

USA.gov is the U.S. government's official web portal to all federal, state and local government web resources and services.